createdAt,value
2019-05-22T00:02:10.534Z,18.90
2019-05-22T00:04:55.204Z,18.90
2019-05-22T00:07:30.671Z,19.00
2019-05-22T00:10:07.110Z,19.20
2019-05-22T00:12:46.810Z,19.30
2019-05-22T00:15:21.486Z,19.30
2019-05-22T00:18:00.926Z,19.40
2019-05-22T00:20:35.851Z,19.50
2019-05-22T00:23:11.805Z,19.50
2019-05-22T00:25:50.138Z,19.60
2019-05-22T00:28:27.085Z,19.80
2019-05-22T00:31:03.561Z,19.90
2019-05-22T00:33:38.474Z,19.90
2019-05-22T00:36:15.685Z,20.10
2019-05-22T00:38:51.935Z,20.20
2019-05-22T00:41:28.074Z,20.20
2019-05-22T00:44:02.858Z,20.30
2019-05-22T00:46:38.527Z,20.40
2019-05-22T00:49:15.920Z,20.30
2019-05-22T00:52:10.764Z,20.40
2019-05-22T00:55:03.085Z,20.50
2019-05-22T00:57:44.179Z,20.80
2019-05-22T01:00:34.950Z,20.90
2019-05-22T01:03:11.706Z,20.90
2019-05-22T01:05:48.676Z,20.80
2019-05-22T01:08:24.382Z,20.80
2019-05-22T01:10:59.646Z,21.00
2019-05-22T01:13:36.715Z,21.10
2019-05-22T01:16:13.228Z,21.20
2019-05-22T01:18:49.723Z,21.20
2019-05-22T01:21:26.084Z,21.40
2019-05-22T01:24:02.853Z,21.40
2019-05-22T01:26:37.900Z,21.60
2019-05-22T01:29:13.814Z,21.60
2019-05-22T01:31:53.381Z,21.70
2019-05-22T01:34:34.307Z,21.70
2019-05-22T01:37:11.441Z,21.70
2019-05-22T01:40:07.559Z,21.60
2019-05-22T01:42:47.363Z,21.70
2019-05-22T01:45:24.830Z,21.70
2019-05-22T01:48:05.375Z,21.60
2019-05-22T01:50:52.077Z,21.70
2019-05-22T01:53:29.674Z,21.70
2019-05-22T01:56:07.485Z,21.90
2019-05-22T01:58:47.529Z,21.90
2019-05-22T02:01:24.316Z,22.00
2019-05-22T02:04:01.365Z,22.00
2019-05-22T02:06:38.475Z,21.90
2019-05-22T02:09:26.742Z,21.90
2019-05-22T02:12:07.520Z,21.90
2019-05-22T02:14:46.825Z,22.00
2019-05-22T02:17:24.893Z,22.00
2019-05-22T02:20:00.870Z,22.00
2019-05-22T02:22:55.585Z,22.10
2019-05-22T03:47:24.555Z,22.00
2019-05-22T04:38:07.384Z,21.80
2019-05-22T05:30:36.236Z,21.60
2019-05-22T07:18:52.410Z,20.30
